Paradise, MI

4:08 AM EST on March 06, 2015 (GMT -0500)
APRSWXNET Paradise MI US | Change Station
CLOSE
Current Station
Personal Weather Station
Location: Paradise, MI
Elevation: 643 ft
Nearby Weather Stations

Elev 643 ft 46.61 °N, 85.04 °W | Updated 51 minutes ago

Partly Cloudy
Partly Cloudy
0 °F
Feels Like 0 °F
N
2
Wind Variable Wind from South
Gusts 4.0 mph

Today
High -- | Low -- °F
--% Chance of Precip.
Yesterday
High -- | Low -- °F
Precip. -- in
7:11 AM 6:33 PM
Full, 100% visible
Pressure 30.21 in
Visibility 10.0 miles
Clouds Clear
Windchill 0 °F
Dew Point -4 °F
Humidity 83%
Rainfall in
Snow Depth Not available.
UV 0 out of 12
Pollen .40 out of 12
Air Quality Not available.
Flu Activity Not available.
METAR KERY 060854Z AUTO 20008KT 10SM CLR M18/M21 A3021 RMK AO2 T11821207

More Conditions Fewer Conditions

Pressure 30.21 in
Visibility 10.0 miles
Clouds Clear
Windchill 0 °F
Dew Point -4 °F
Humidity 83%
Rainfall in
Snow Depth Not available.
UV 0 out of 12
Pollen .40 out of 12
Air Quality Not available.
Flu Activity Not available.
METAR KERY 060854Z AUTO 20008KT 10SM CLR M18/M21 A3021 RMK AO2 T11821207

More Conditions Fewer Conditions

Nowcast | as of 4:00 am EST on March 6, 2015

At 5 am...mostly clear. Temperature 7 below. South winds 6 mph. At 7 am...mostly clear. Temperature 4 below. Southwest winds 8 mph. At 9 am...clear. Temperature 6 above. Southwest winds 10 mph. Wind chill 9 below. At 11 am...mostly clear. Temperature 15. Southwest winds 14 mph. Wind chill zero.

×

10-Day Weather Forecast

Almanac

Astronomy

Mar. 06, 2015 Rise Set
Actual Time
Civil Twilight
Nautical Twilight
Astronomical Twilight
Moon
Length of Visible Light
Length of Day
Tomorrow will be .
, % of the Moon is Illuminated

Today's Extremes

State Highs State Lows

Community

WunderPhotos

Upload Photos

1,803,212 photos uploaded!

WunderBlogs® & News

Nearby

Air Quality

  Air Quality AQ Index Pollutant
Not available.

Snow Depth

Station Depth Elevation

Earthquake Activity

City Distance Mag. Time & Date
Minimum magnitude displayed is 2.5.

Coastal Water Temperatures

Place Temperature

Nearby Weather Stations